Time;durP1;ratioP1;P1;durP2;ratioP2;P2;SDS_P1;SDS_P2;PMS_P1;PMS_P2;Temp;Humidity;BMP_temperature;BMP_pressure;BME280_temperature;BME280_humidity;BME280_pressure;Samples;Min_cycle;Max_cycle;Signal;HPM_P1;HPM_P2
2021/09/07 00:00:05;;;;;;;;;;;16.40;99.90;;;;;;5092969;28;19920;-79
2021/09/07 00:02:31;;;;;;;;;;;16.40;99.90;;;;;;5092801;28;20361;-79
2021/09/07 00:04:56;;;;;;;;;;;16.40;99.90;;;;;;5094694;28;19923;-79
2021/09/07 00:07:24;;;;;;;;;;;16.40;99.90;;;;;;5093439;28;19923;-79
2021/09/07 00:09:50;;;;;;;;;;;16.30;99.90;;;;;;5074557;28;19955;-78
2021/09/07 00:12:15;;;;;;;;;;;16.30;99.90;;;;;;5077105;28;19955;-79
2021/09/07 00:14:41;;;;;;;;;;;16.20;99.90;;;;;;5095042;28;20317;-80
2021/09/07 00:17:06;;;;;;;;;;;16.20;99.90;;;;;;5091885;28;19916;-79
2021/09/07 00:19:32;;;;;;;;;;;16.20;99.90;;;;;;5093039;28;19916;-79
2021/09/07 00:21:58;;;;;;;;;;;16.10;99.90;;;;;;5094165;28;19916;-77
2021/09/07 00:24:23;;;;;;;;;;;16.10;99.90;;;;;;5073959;28;19943;-79
2021/09/07 00:26:49;;;;;;;;;;;16.10;99.90;;;;;;5094604;28;19912;-79
2021/09/07 00:29:15;;;;;;;;;;;16.10;99.90;;;;;;5076775;28;19958;-79
2021/09/07 00:31:41;;;;;;;;;;;16.10;99.90;;;;;;5093087;28;19912;-78
2021/09/07 00:34:07;;;;;;;;;;;16.10;99.90;;;;;;5076841;28;19916;-79
2021/09/07 00:36:32;;;;;;;;;;;16.10;99.90;;;;;;5074375;28;19916;-79
2021/09/07 00:38:58;;;;;;;;;;;16.00;99.90;;;;;;5073795;28;19973;-79
2021/09/07 00:41:23;;;;;;;;;;;16.10;99.90;;;;;;5076089;28;19923;-80
2021/09/07 00:43:49;;;;;;;;;;;16.10;99.90;;;;;;5093965;28;19912;-77
2021/09/07 00:46:14;;;;;;;;;;;16.00;99.90;;;;;;5073848;28;19908;-79
2021/09/07 00:48:40;;;;;;;;;;;16.10;99.90;;;;;;5091743;28;19927;-79
2021/09/07 00:51:06;;;;;;;;;;;16.10;99.90;;;;;;5094369;28;19912;-79
2021/09/07 00:53:31;;;;;;;;;;;16.10;99.90;;;;;;5075133;28;20157;-78
2021/09/07 00:55:58;;;;;;;;;;;16.20;99.90;;;;;;5094158;28;20179;-79
2021/09/07 00:58:26;;;;;;;;;;;16.20;99.90;;;;;;5075622;28;19986;-80
2021/09/07 01:00:52;;;;;;;;;;;16.20;99.90;;;;;;5091703;28;19926;-76
2021/09/07 01:03:17;;;;;;;;;;;16.20;99.90;;;;;;5093198;28;19935;-79
2021/09/07 01:05:43;;;;;;;;;;;16.20;99.90;;;;;;5093358;28;19916;-78
2021/09/07 01:08:09;;;;;;;;;;;16.10;99.90;;;;;;5091812;28;20020;-78
2021/09/07 01:10:36;;;;;;;;;;;16.10;99.90;;;;;;5086092;28;19951;-79
2021/09/07 01:13:02;;;;;;;;;;;16.10;99.90;;;;;;5091906;28;19922;-79
2021/09/07 01:15:27;;;;;;;;;;;16.10;99.90;;;;;;5091923;28;20010;-79
2021/09/07 01:17:53;;;;;;;;;;;16.10;99.90;;;;;;5075259;28;19912;-79
2021/09/07 01:20:19;;;;;;;;;;;16.00;99.90;;;;;;5087479;28;19966;-76
2021/09/07 01:22:44;;;;;;;;;;;16.00;99.90;;;;;;5089830;28;19923;-78
2021/09/07 01:25:11;;;;;;;;;;;16.00;99.90;;;;;;5088023;28;19908;-78
2021/09/07 01:27:37;;;;;;;;;;;16.00;99.90;;;;;;5067285;28;19919;-79
2021/09/07 01:30:02;;;;;;;;;;;15.90;99.90;;;;;;5090471;28;20229;-79
2021/09/07 01:32:28;;;;;;;;;;;15.90;99.90;;;;;;5089496;28;19916;-77
2021/09/07 01:34:54;;;;;;;;;;;15.80;99.90;;;;;;5073503;28;20211;-78
2021/09/07 01:37:20;;;;;;;;;;;15.70;99.90;;;;;;5090432;28;19916;-76
2021/09/07 01:39:45;;;;;;;;;;;15.60;99.90;;;;;;5074923;28;19943;-79
2021/09/07 01:42:11;;;;;;;;;;;15.50;99.90;;;;;;5093891;28;19978;-79
2021/09/07 01:44:41;;;;;;;;;;;15.50;99.90;;;;;;5091545;28;20211;-79
2021/09/07 01:47:08;;;;;;;;;;;15.40;99.90;;;;;;5075168;28;19919;-75
2021/09/07 01:49:34;;;;;;;;;;;15.40;99.90;;;;;;5064302;28;19981;-78
2021/09/07 01:52:07;;;;;;;;;;;15.30;99.90;;;;;;5092958;28;20274;-78
2021/09/07 01:54:33;;;;;;;;;;;15.30;99.90;;;;;;5075434;28;19912;-78
2021/09/07 01:56:58;;;;;;;;;;;15.30;99.90;;;;;;5069869;28;19916;-78
2021/09/07 01:59:24;;;;;;;;;;;15.30;99.90;;;;;;5072941;28;19962;-78
2021/09/07 02:01:50;;;;;;;;;;;15.30;99.90;;;;;;5090268;28;20227;-78
2021/09/07 02:04:15;;;;;;;;;;;15.30;99.90;;;;;;5091382;28;20184;-77
2021/09/07 02:06:41;;;;;;;;;;;15.30;99.90;;;;;;5091571;28;20309;-79
2021/09/07 02:09:06;;;;;;;;;;;15.30;99.90;;;;;;5091444;28;20006;-78
2021/09/07 02:11:32;;;;;;;;;;;15.20;99.90;;;;;;5086568;28;20341;-75
2021/09/07 02:13:58;;;;;;;;;;;15.20;99.90;;;;;;5090727;28;19965;-77
2021/09/07 02:16:23;;;;;;;;;;;15.10;99.90;;;;;;5093669;28;19919;-78
2021/09/07 02:18:49;;;;;;;;;;;15.10;99.90;;;;;;5092539;28;19920;-77
2021/09/07 02:21:15;;;;;;;;;;;15.10;99.90;;;;;;5090621;28;19916;-78
2021/09/07 02:23:40;;;;;;;;;;;15.10;99.90;;;;;;5091988;28;19920;-78
2021/09/07 02:26:06;;;;;;;;;;;15.10;99.90;;;;;;5083028;28;20192;-77
2021/09/07 02:28:31;;;;;;;;;;;15.10;99.90;;;;;;5076096;28;19923;-78
2021/09/07 02:30:57;;;;;;;;;;;15.00;99.90;;;;;;5092332;28;20139;-78
2021/09/07 02:33:22;;;;;;;;;;;14.90;99.90;;;;;;5069040;28;19908;-77
2021/09/07 02:35:48;;;;;;;;;;;14.90;99.90;;;;;;5089499;28;19913;-76
2021/09/07 02:38:13;;;;;;;;;;;14.90;99.90;;;;;;5075403;28;19916;-77
2021/09/07 02:40:39;;;;;;;;;;;14.80;99.90;;;;;;5075362;28;20310;-78
2021/09/07 02:43:05;;;;;;;;;;;14.80;99.90;;;;;;5092891;28;19912;-75
2021/09/07 02:45:30;;;;;;;;;;;14.80;99.90;;;;;;5085139;28;20390;-78
2021/09/07 02:47:56;;;;;;;;;;;14.80;99.90;;;;;;5088569;28;20276;-78
2021/09/07 02:50:22;;;;;;;;;;;14.70;99.90;;;;;;5088320;28;19916;-76
2021/09/07 02:52:48;;;;;;;;;;;14.70;99.90;;;;;;5088858;28;19912;-77
2021/09/07 02:55:13;;;;;;;;;;;14.80;99.90;;;;;;5090868;28;19923;-78
2021/09/07 02:57:39;;;;;;;;;;;14.70;99.90;;;;;;5086627;28;19935;-79
2021/09/07 03:00:05;;;;;;;;;;;14.70;99.90;;;;;;5072272;28;19924;-78
2021/09/07 03:02:31;;;;;;;;;;;14.80;99.90;;;;;;5087250;28;19919;-78
2021/09/07 03:04:56;;;;;;;;;;;14.70;99.90;;;;;;5089305;28;19916;-78
2021/09/07 03:07:22;;;;;;;;;;;14.80;99.90;;;;;;5088288;28;19943;-78
2021/09/07 03:09:47;;;;;;;;;;;14.70;99.90;;;;;;5090356;28;20006;-79
2021/09/07 03:12:13;;;;;;;;;;;14.60;99.90;;;;;;5071975;28;20321;-79
2021/09/07 03:14:38;;;;;;;;;;;14.60;99.90;;;;;;5089768;28;20336;-79
2021/09/07 03:17:04;;;;;;;;;;;14.50;99.90;;;;;;5086795;28;19980;-79
2021/09/07 03:19:30;;;;;;;;;;;14.50;99.90;;;;;;5070603;28;19916;-78
2021/09/07 03:21:55;;;;;;;;;;;14.40;99.90;;;;;;5090818;28;19920;-78
2021/09/07 03:24:21;;;;;;;;;;;14.40;99.90;;;;;;5071539;28;19912;-79
2021/09/07 03:26:46;;;;;;;;;;;14.30;99.90;;;;;;5092471;28;19916;-79
2021/09/07 03:29:12;;;;;;;;;;;14.30;99.90;;;;;;5089888;28;19916;-78
2021/09/07 03:31:38;;;;;;;;;;;14.30;99.90;;;;;;5089561;28;20011;-77
2021/09/07 03:34:04;;;;;;;;;;;14.20;99.90;;;;;;5088808;28;19920;-78
2021/09/07 03:36:29;;;;;;;;;;;14.20;99.90;;;;;;5091083;28;19916;-77
2021/09/07 03:38:55;;;;;;;;;;;14.30;99.90;;;;;;5075421;28;19913;-78
2021/09/07 03:41:20;;;;;;;;;;;14.30;99.90;;;;;;5066235;28;20265;-78
2021/09/07 03:43:46;;;;;;;;;;;14.30;99.90;;;;;;5089650;28;19920;-79
2021/09/07 03:46:11;;;;;;;;;;;14.30;99.90;;;;;;5090159;28;19992;-76
2021/09/07 03:48:37;;;;;;;;;;;14.20;99.90;;;;;;5086510;28;20015;-76
2021/09/07 03:51:03;;;;;;;;;;;14.10;99.90;;;;;;5087615;28;19920;-78
2021/09/07 03:53:30;;;;;;;;;;;14.10;99.90;;;;;;5092011;28;19920;-75
2021/09/07 03:55:57;;;;;;;;;;;14.10;99.90;;;;;;5067680;28;19989;-79
2021/09/07 03:58:23;;;;;;;;;;;14.10;99.90;;;;;;5093516;28;19918;-79
2021/09/07 04:00:48;;;;;;;;;;;14.10;99.90;;;;;;5074026;28;19928;-78
2021/09/07 04:03:15;;;;;;;;;;;14.10;99.90;;;;;;5073228;28;20010;-78
2021/09/07 04:05:41;;;;;;;;;;;14.00;99.90;;;;;;5088656;28;19984;-78
2021/09/07 04:08:06;;;;;;;;;;;14.00;99.90;;;;;;5085540;28;19963;-79
2021/09/07 04:10:32;;;;;;;;;;;14.00;99.90;;;;;;5073403;28;19915;-76
2021/09/07 04:12:57;;;;;;;;;;;14.00;99.90;;;;;;5091630;28;20027;-77
2021/09/07 04:15:23;;;;;;;;;;;14.10;99.90;;;;;;5095152;28;19959;-78
2021/09/07 04:17:48;;;;;;;;;;;14.00;99.90;;;;;;5094526;28;19920;-78
2021/09/07 04:20:14;;;;;;;;;;;14.00;99.90;;;;;;5092440;28;20010;-77
2021/09/07 04:22:39;;;;;;;;;;;14.10;99.90;;;;;;5093996;28;20004;-77
2021/09/07 04:25:05;;;;;;;;;;;14.10;99.90;;;;;;5094764;28;20215;-78
2021/09/07 04:27:31;;;;;;;;;;;14.10;99.90;;;;;;5075032;28;19912;-78
2021/09/07 04:29:56;;;;;;;;;;;14.10;99.90;;;;;;5092902;28;19912;-78
2021/09/07 04:32:22;;;;;;;;;;;14.10;99.90;;;;;;5070274;28;19912;-78
2021/09/07 04:34:48;;;;;;;;;;;14.00;99.90;;;;;;5088632;28;19927;-75
2021/09/07 04:37:13;;;;;;;;;;;14.00;99.90;;;;;;5087178;28;20010;-76
2021/09/07 04:39:39;;;;;;;;;;;14.00;99.90;;;;;;5087393;28;19916;-78
2021/09/07 04:42:05;;;;;;;;;;;13.90;99.90;;;;;;5069719;28;19920;-79
2021/09/07 04:44:31;;;;;;;;;;;14.00;99.90;;;;;;5085266;28;19964;-78
2021/09/07 04:46:56;;;;;;;;;;;14.00;99.90;;;;;;5086784;28;19927;-79
2021/09/07 04:49:22;;;;;;;;;;;14.00;99.90;;;;;;5087820;28;20298;-76
2021/09/07 04:51:48;;;;;;;;;;;14.00;99.90;;;;;;5066935;28;19916;-76
2021/09/07 04:54:13;;;;;;;;;;;14.10;99.90;;;;;;5086452;28;19945;-79
2021/09/07 04:56:39;;;;;;;;;;;14.10;99.90;;;;;;5067497;28;20317;-78
2021/09/07 04:59:04;;;;;;;;;;;14.00;99.90;;;;;;5086619;28;20325;-79
2021/09/07 05:01:30;;;;;;;;;;;14.00;99.90;;;;;;5068179;28;19931;-79
2021/09/07 05:03:56;;;;;;;;;;;14.10;99.90;;;;;;5065370;28;19913;-78
2021/09/07 05:06:21;;;;;;;;;;;14.10;99.90;;;;;;5067410;28;19919;-78
2021/09/07 05:08:47;;;;;;;;;;;14.20;99.90;;;;;;5085796;28;19920;-79
2021/09/07 05:11:12;;;;;;;;;;;14.20;99.90;;;;;;5088502;28;20010;-77
2021/09/07 05:13:38;;;;;;;;;;;14.20;99.90;;;;;;5088985;28;20083;-79
2021/09/07 05:16:04;;;;;;;;;;;14.10;99.90;;;;;;5091066;28;19916;-79
2021/09/07 05:18:29;;;;;;;;;;;14.10;99.90;;;;;;5090284;28;19989;-79
2021/09/07 05:20:55;;;;;;;;;;;14.20;99.90;;;;;;5093070;28;20222;-77
2021/09/07 05:23:20;;;;;;;;;;;14.20;99.90;;;;;;5075211;28;19915;-76
2021/09/07 05:25:46;;;;;;;;;;;14.20;99.90;;;;;;5087637;28;19934;-78
2021/09/07 05:28:12;;;;;;;;;;;14.30;99.90;;;;;;5090624;28;19919;-78
2021/09/07 05:30:38;;;;;;;;;;;14.40;99.90;;;;;;5091588;28;19916;-78
2021/09/07 05:33:04;;;;;;;;;;;14.40;99.90;;;;;;5088751;28;19995;-78
2021/09/07 05:35:30;;;;;;;;;;;14.50;99.90;;;;;;5087382;28;20274;-79
2021/09/07 05:37:55;;;;;;;;;;;14.60;99.90;;;;;;5073669;28;19962;-76
2021/09/07 05:40:21;;;;;;;;;;;14.70;99.90;;;;;;5093909;28;20218;-78
2021/09/07 05:42:46;;;;;;;;;;;14.70;99.90;;;;;;5071953;28;19951;-79
2021/09/07 05:45:14;;;;;;;;;;;14.80;99.90;;;;;;5069447;28;19912;-78
2021/09/07 05:47:39;;;;;;;;;;;14.90;99.90;;;;;;5067990;28;19922;-78
2021/09/07 05:50:05;;;;;;;;;;;14.90;99.90;;;;;;5084049;28;19924;-78
2021/09/07 05:52:31;;;;;;;;;;;15.00;99.90;;;;;;5089253;28;20303;-79
2021/09/07 05:54:57;;;;;;;;;;;15.00;99.90;;;;;;5086184;28;19916;-79
2021/09/07 05:57:22;;;;;;;;;;;15.10;99.90;;;;;;5083433;28;19919;-78
2021/09/07 05:59:48;;;;;;;;;;;15.20;99.90;;;;;;5085898;28;19924;-77
2021/09/07 06:02:14;;;;;;;;;;;15.30;99.90;;;;;;5065952;28;19916;-80
2021/09/07 06:04:39;;;;;;;;;;;15.30;99.90;;;;;;5068673;28;20326;-78
2021/09/07 06:07:05;;;;;;;;;;;15.30;99.90;;;;;;5083640;28;19920;-79
2021/09/07 06:09:30;;;;;;;;;;;15.40;99.90;;;;;;5089917;28;19912;-79
2021/09/07 06:11:56;;;;;;;;;;;15.40;99.90;;;;;;5084681;28;19919;-79
2021/09/07 06:14:21;;;;;;;;;;;15.50;99.90;;;;;;5086017;28;20318;-78
2021/09/07 06:16:47;;;;;;;;;;;15.50;99.90;;;;;;5069015;28;19913;-78
2021/09/07 06:19:13;;;;;;;;;;;15.60;99.90;;;;;;5087646;28;20180;-78
2021/09/07 06:21:38;;;;;;;;;;;15.70;99.90;;;;;;5092077;28;19916;-78
2021/09/07 06:24:04;;;;;;;;;;;15.70;99.90;;;;;;5092927;28;19916;-79
2021/09/07 06:26:30;;;;;;;;;;;15.80;99.90;;;;;;5093463;28;20215;-78
2021/09/07 06:28:55;;;;;;;;;;;15.80;99.90;;;;;;5093693;28;19966;-79
2021/09/07 06:31:21;;;;;;;;;;;15.90;99.90;;;;;;5095060;28;19919;-78
2021/09/07 06:33:46;;;;;;;;;;;16.00;99.90;;;;;;5068070;28;20299;-77
2021/09/07 06:36:12;;;;;;;;;;;16.00;99.90;;;;;;5076335;28;19916;-79
2021/09/07 06:38:38;;;;;;;;;;;16.00;99.90;;;;;;5079297;28;19912;-79
2021/09/07 06:41:06;;;;;;;;;;;16.10;99.90;;;;;;5079350;28;20081;-78
2021/09/07 06:43:32;;;;;;;;;;;16.10;99.90;;;;;;5079093;28;19912;-78
2021/09/07 06:45:58;;;;;;;;;;;16.20;99.90;;;;;;5082103;28;19966;-77
2021/09/07 06:48:23;;;;;;;;;;;16.30;99.90;;;;;;5084822;28;19916;-78
2021/09/07 06:50:49;;;;;;;;;;;16.30;99.90;;;;;;5094941;28;19912;-78
2021/09/07 06:53:14;;;;;;;;;;;16.40;99.90;;;;;;5077855;28;19995;-78
2021/09/07 06:55:40;;;;;;;;;;;16.40;99.90;;;;;;5087098;28;19912;-79
2021/09/07 06:58:05;;;;;;;;;;;16.50;99.90;;;;;;5080064;28;19996;-79
2021/09/07 07:00:31;;;;;;;;;;;16.70;99.90;;;;;;5083985;28;19921;-78
2021/09/07 07:02:57;;;;;;;;;;;16.70;99.90;;;;;;5076825;28;20010;-79
2021/09/07 07:05:24;;;;;;;;;;;16.80;99.90;;;;;;5078569;28;19916;-78
2021/09/07 07:07:50;;;;;;;;;;;16.90;99.90;;;;;;5078682;28;19922;-79
2021/09/07 07:10:16;;;;;;;;;;;17.00;99.90;;;;;;5079086;28;19912;-80
2021/09/07 07:12:41;;;;;;;;;;;17.10;99.90;;;;;;5096218;28;20306;-79
2021/09/07 07:15:07;;;;;;;;;;;17.20;99.90;;;;;;5087618;28;19917;-79
2021/09/07 07:17:33;;;;;;;;;;;17.30;99.90;;;;;;5096605;28;20315;-78
2021/09/07 07:19:58;;;;;;;;;;;17.30;99.90;;;;;;5096636;28;19923;-79
2021/09/07 07:22:25;;;;;;;;;;;17.40;99.90;;;;;;5096540;28;19912;-80
2021/09/07 07:24:52;;;;;;;;;;;17.50;99.90;;;;;;5084700;28;20218;-79
2021/09/07 07:27:17;;;;;;;;;;;17.60;99.90;;;;;;5077685;28;19908;-79
2021/09/07 07:29:43;;;;;;;;;;;17.60;99.90;;;;;;5096128;28;19916;-79
2021/09/07 07:32:09;;;;;;;;;;;17.70;99.90;;;;;;5071238;28;19916;-79
2021/09/07 07:34:35;;;;;;;;;;;17.80;99.90;;;;;;5092186;28;19919;-79
2021/09/07 07:37:04;;;;;;;;;;;18.00;99.90;;;;;;5077101;28;19908;-79
2021/09/07 07:39:30;;;;;;;;;;;18.10;99.90;;;;;;5075621;28;19908;-80
2021/09/07 07:41:55;;;;;;;;;;;18.20;99.90;;;;;;5078281;28;19912;-79
2021/09/07 07:44:21;;;;;;;;;;;18.20;99.90;;;;;;5095999;28;19908;-80
2021/09/07 07:46:47;;;;;;;;;;;18.40;99.90;;;;;;5089376;28;19919;-80
2021/09/07 07:49:12;;;;;;;;;;;18.40;99.90;;;;;;5089712;28;19928;-81
2021/09/07 07:51:38;;;;;;;;;;;18.50;99.90;;;;;;5083897;28;20378;-78
2021/09/07 07:54:07;;;;;;;;;;;18.50;99.90;;;;;;5085852;28;19916;-80
2021/09/07 07:56:33;;;;;;;;;;;18.60;99.90;;;;;;5066651;28;20654;-80
2021/09/07 07:58:59;;;;;;;;;;;18.70;99.90;;;;;;5084382;28;20027;-81
2021/09/07 08:01:24;;;;;;;;;;;18.80;99.90;;;;;;5082812;28;19924;-80
2021/09/07 08:03:50;;;;;;;;;;;18.90;99.90;;;;;;5082653;28;19952;-81
2021/09/07 08:06:15;;;;;;;;;;;18.90;99.90;;;;;;5084348;28;19923;-81
2021/09/07 08:08:41;;;;;;;;;;;19.00;99.90;;;;;;5068288;28;19923;-81
2021/09/07 08:11:07;;;;;;;;;;;19.10;99.90;;;;;;5086959;28;19916;-81
2021/09/07 08:13:32;;;;;;;;;;;19.10;99.90;;;;;;5086392;28;19977;-80
2021/09/07 08:15:58;;;;;;;;;;;19.20;99.90;;;;;;5095076;28;19916;-80
2021/09/07 08:18:23;;;;;;;;;;;19.30;99.90;;;;;;5075981;28;20042;-77
2021/09/07 08:20:49;;;;;;;;;;;19.30;99.90;;;;;;5093762;28;20593;-75
2021/09/07 08:23:15;;;;;;;;;;;19.30;99.90;;;;;;5091840;28;20007;-80
2021/09/07 08:25:40;;;;;;;;;;;19.40;99.90;;;;;;5087133;28;20283;-79
2021/09/07 08:28:06;;;;;;;;;;;19.50;99.90;;;;;;5094796;28;19931;-82
2021/09/07 08:30:32;;;;;;;;;;;19.50;99.90;;;;;;5093746;28;19947;-80
2021/09/07 08:32:58;;;;;;;;;;;19.60;99.90;;;;;;5092046;28;19999;-81
2021/09/07 08:35:23;;;;;;;;;;;19.70;99.90;;;;;;5076790;28;19920;-81
2021/09/07 08:37:49;;;;;;;;;;;19.90;99.90;;;;;;5075911;28;19923;-76
2021/09/07 08:40:14;;;;;;;;;;;20.10;99.90;;;;;;5094958;28;19969;-81
2021/09/07 08:42:40;;;;;;;;;;;20.20;99.90;;;;;;5094401;28;20072;-82
2021/09/07 08:45:08;;;;;;;;;;;20.20;99.90;;;;;;5068542;28;20250;-81
2021/09/07 08:47:33;;;;;;;;;;;20.20;99.90;;;;;;5070824;28;19908;-81
2021/09/07 08:50:01;;;;;;;;;;;20.20;99.90;;;;;;5095379;28;19916;-81
2021/09/07 08:52:27;;;;;;;;;;;20.20;99.90;;;;;;5095018;28;20015;-82
2021/09/07 08:54:52;;;;;;;;;;;20.30;99.90;;;;;;5077082;28;20330;-82
2021/09/07 08:57:18;;;;;;;;;;;20.40;99.90;;;;;;5095585;28;19962;-79
2021/09/07 08:59:44;;;;;;;;;;;20.40;99.90;;;;;;5093989;28;19926;-81
2021/09/07 09:02:16;;;;;;;;;;;20.50;99.90;;;;;;5093275;28;19912;-81
2021/09/07 09:04:46;;;;;;;;;;;20.60;99.90;;;;;;5094048;28;20337;-82
2021/09/07 09:07:21;;;;;;;;;;;20.90;99.90;;;;;;5076674;28;20002;-83
2021/09/07 09:09:49;;;;;;;;;;;21.10;99.90;;;;;;5095027;28;19908;-82
2021/09/07 09:12:15;;;;;;;;;;;21.40;99.90;;;;;;5089077;28;19908;-82
2021/09/07 09:14:42;;;;;;;;;;;21.60;99.90;;;;;;5095174;28;20008;-82
2021/09/07 09:17:17;;;;;;;;;;;21.90;99.90;;;;;;5095419;28;19908;-82
2021/09/07 09:19:53;;;;;;;;;;;22.00;99.90;;;;;;5093234;28;20254;-83
2021/09/07 09:22:19;;;;;;;;;;;22.00;99.90;;;;;;5084818;28;20455;-81
2021/09/07 09:24:44;;;;;;;;;;;22.00;99.90;;;;;;5095442;28;19908;-84
2021/09/07 09:27:11;;;;;;;;;;;22.00;99.90;;;;;;5094531;28;20214;-83
2021/09/07 09:29:37;;;;;;;;;;;22.00;99.90;;;;;;5074087;28;19938;-82
2021/09/07 09:32:04;;;;;;;;;;;21.90;99.90;;;;;;5092282;28;19916;-82
2021/09/07 09:34:30;;;;;;;;;;;22.00;99.90;;;;;;5075935;28;20219;-83
2021/09/07 09:36:57;;;;;;;;;;;22.20;99.90;;;;;;5075688;28;19979;-82
2021/09/07 09:39:34;;;;;;;;;;;22.30;99.90;;;;;;5075018;28;20049;-83
2021/09/07 09:42:00;;;;;;;;;;;22.50;99.90;;;;;;5072254;28;19920;-81
2021/09/07 09:44:27;;;;;;;;;;;22.80;99.90;;;;;;5086679;28;19919;-82
2021/09/07 09:46:53;;;;;;;;;;;22.90;99.90;;;;;;5084714;28;20316;-83
2021/09/07 09:49:19;;;;;;;;;;;22.90;99.90;;;;;;5093853;28;19966;-81
2021/09/07 09:51:45;;;;;;;;;;;22.90;99.90;;;;;;5094505;28;19943;-81
2021/09/07 09:54:10;;;;;;;;;;;23.00;99.90;;;;;;5075342;28;19912;-82
2021/09/07 09:56:36;;;;;;;;;;;23.10;99.90;;;;;;5095527;28;19915;-82
2021/09/07 09:59:02;;;;;;;;;;;23.20;99.90;;;;;;5079422;28;20215;-82
2021/09/07 10:01:28;;;;;;;;;;;23.30;99.90;;;;;;5096557;28;19954;-82
2021/09/07 10:03:54;;;;;;;;;;;23.50;99.90;;;;;;5077085;28;19909;-82
2021/09/07 10:06:20;;;;;;;;;;;23.50;99.90;;;;;;5072636;28;19963;-80
2021/09/07 10:08:46;;;;;;;;;;;23.60;99.90;;;;;;5096647;28;20342;-82
2021/09/07 10:11:14;;;;;;;;;;;23.60;99.90;;;;;;5097851;28;20006;-82
2021/09/07 10:13:42;;;;;;;;;;;23.70;99.90;;;;;;5079800;28;20357;-81
2021/09/07 10:16:12;;;;;;;;;;;23.80;99.90;;;;;;5098378;28;19920;-81
2021/09/07 10:24:15;;;;;;;;;;;23.90;99.90;;;;;;5060015;28;19923;-81
2021/09/07 10:26:40;;;;;;;;;;;23.80;99.90;;;;;;5069553;28;19908;-81
2021/09/07 10:29:09;;;;;;;;;;;23.80;99.90;;;;;;5098021;28;20007;-81
2021/09/07 10:31:42;;;;;;;;;;;23.80;99.90;;;;;;5076820;28;19930;-81
2021/09/07 10:34:08;;;;;;;;;;;23.90;99.90;;;;;;5093828;28;19958;-79
2021/09/07 10:36:36;;;;;;;;;;;23.90;99.90;;;;;;5078039;28;19920;-81
2021/09/07 10:39:07;;;;;;;;;;;23.90;99.90;;;;;;5080227;28;19912;-81
2021/09/07 10:41:32;;;;;;;;;;;24.00;99.90;;;;;;5079889;28;19934;-82
2021/09/07 10:43:59;;;;;;;;;;;24.00;99.90;;;;;;5078813;28;20376;-81
2021/09/07 10:46:42;;;;;;;;;;;24.10;99.90;;;;;;5097555;28;19908;-83
2021/09/07 10:49:17;;;;;;;;;;;24.10;99.90;;;;;;5079985;28;19920;-82
2021/09/07 10:52:02;;;;;;;;;;;24.20;99.90;;;;;;5084369;28;19970;-82
2021/09/07 10:54:27;;;;;;;;;;;24.30;99.90;;;;;;5078205;28;19961;-81
2021/09/07 10:56:57;;;;;;;;;;;24.30;99.90;;;;;;5068778;28;19916;-83
2021/09/07 10:59:41;;;;;;;;;;;24.40;99.90;;;;;;5097606;28;19908;-82
2021/09/07 11:02:25;;;;;;;;;;;24.50;99.90;;;;;;5086026;28;20184;-81
2021/09/07 11:04:51;;;;;;;;;;;24.60;99.90;;;;;;5097747;28;19912;-81
2021/09/07 11:07:36;;;;;;;;;;;24.60;99.90;;;;;;5077930;28;19954;-82
2021/09/07 11:10:02;;;;;;;;;;;24.70;99.90;;;;;;5079259;28;19912;-82
2021/09/07 11:12:27;;;;;;;;;;;24.70;99.90;;;;;;5095072;28;20614;-81
2021/09/07 11:15:03;;;;;;;;;;;24.70;99.90;;;;;;5095774;28;19922;-81
2021/09/07 11:17:29;;;;;;;;;;;24.80;99.90;;;;;;5096429;28;19924;-81
2021/09/07 11:20:02;;;;;;;;;;;24.90;99.90;;;;;;5093224;28;20314;-79
2021/09/07 11:22:28;;;;;;;;;;;24.90;99.90;;;;;;5075918;28;19908;-81
2021/09/07 11:25:01;;;;;;;;;;;25.00;99.90;;;;;;5078986;28;20235;-81
2021/09/07 11:27:27;;;;;;;;;;;25.00;99.90;;;;;;5075863;28;19912;-81
2021/09/07 11:29:52;;;;;;;;;;;25.10;99.90;;;;;;5096824;28;19915;-80
2021/09/07 11:32:19;;;;;;;;;;;25.20;99.90;;;;;;5096790;28;20007;-81
2021/09/07 11:35:04;;;;;;;;;;;25.20;99.90;;;;;;5075083;28;19966;-80
2021/09/07 11:37:30;;;;;;;;;;;25.20;99.90;;;;;;5096154;28;19916;-80
2021/09/07 11:40:09;;;;;;;;;;;25.20;99.90;;;;;;5070928;28;20262;-77
2021/09/07 11:42:43;;;;;;;;;;;25.20;99.90;;;;;;5091641;28;19920;-77
2021/09/07 11:45:16;;;;;;;;;;;25.20;99.90;;;;;;5077329;28;20010;-76
2021/09/07 11:47:43;;;;;;;;;;;25.20;99.90;;;;;;5063115;28;20201;-81
2021/09/07 11:50:09;;;;;;;;;;;25.20;99.90;;;;;;5081604;28;19916;-78
2021/09/07 11:52:35;;;;;;;;;;;25.20;99.90;;;;;;5086143;28;20010;-81
2021/09/07 11:55:06;;;;;;;;;;;25.30;99.90;;;;;;5078673;28;19913;-80
2021/09/07 11:57:52;;;;;;;;;;;25.40;99.90;;;;;;5078179;28;19920;-82
2021/09/07 12:00:21;;;;;;;;;;;25.50;99.90;;;;;;5071804;28;20367;-82
2021/09/07 12:02:46;;;;;;;;;;;25.60;99.90;;;;;;5085912;28;20287;-81
2021/09/07 12:05:12;;;;;;;;;;;25.70;99.90;;;;;;5095981;28;19950;-81
2021/09/07 12:07:50;;;;;;;;;;;25.70;99.90;;;;;;5094915;28;20014;-82
2021/09/07 12:10:16;;;;;;;;;;;25.70;99.90;;;;;;5077342;28;20233;-82
2021/09/07 12:12:41;;;;;;;;;;;25.70;99.90;;;;;;5089288;28;19913;-81
2021/09/07 12:15:16;;;;;;;;;;;25.60;99.90;;;;;;5095078;28;19920;-81
2021/09/07 12:17:42;;;;;;;;;;;25.50;99.90;;;;;;5090508;28;19912;-81
2021/09/07 12:20:16;;;;;;;;;;;25.50;99.90;;;;;;5095593;28;19912;-82
2021/09/07 12:22:43;;;;;;;;;;;25.50;99.90;;;;;;5090828;28;20314;-81
2021/09/07 12:25:13;;;;;;;;;;;25.60;99.90;;;;;;5073473;28;19916;-79
2021/09/07 12:27:43;;;;;;;;;;;25.60;99.90;;;;;;5089852;28;19912;-81
2021/09/07 12:30:10;;;;;;;;;;;25.60;99.90;;;;;;5077755;28;20006;-77
2021/09/07 12:32:54;;;;;;;;;;;25.60;99.90;;;;;;5094047;28;19934;-82
2021/09/07 12:35:31;;;;;;;;;;;25.60;99.90;;;;;;5086241;28;19939;-81
2021/09/07 12:37:57;;;;;;;;;;;25.60;99.90;;;;;;5094737;28;19923;-83
2021/09/07 12:40:23;;;;;;;;;;;25.60;99.90;;;;;;5095895;28;20317;-81
2021/09/07 12:42:48;;;;;;;;;;;25.50;99.90;;;;;;5077316;28;20018;-81
2021/09/07 12:45:14;;;;;;;;;;;25.50;99.90;;;;;;5096075;28;19919;-82
2021/09/07 12:47:39;;;;;;;;;;;25.30;99.90;;;;;;5090739;28;19912;-82
2021/09/07 12:50:05;;;;;;;;;;;25.20;99.90;;;;;;5089674;28;20192;-83
2021/09/07 12:52:30;;;;;;;;;;;25.30;99.90;;;;;;5084542;28;20199;-82
2021/09/07 12:54:56;;;;;;;;;;;25.30;99.90;;;;;;5070803;28;19920;-83
2021/09/07 12:57:22;;;;;;;;;;;25.40;99.90;;;;;;5090411;28;19916;-82
2021/09/07 12:59:47;;;;;;;;;;;25.50;99.90;;;;;;5086107;28;19915;-82
2021/09/07 13:02:13;;;;;;;;;;;25.70;99.90;;;;;;5086803;28;19997;-83
2021/09/07 13:04:38;;;;;;;;;;;25.60;99.90;;;;;;5091280;28;20307;-84
2021/09/07 13:07:04;;;;;;;;;;;25.60;99.90;;;;;;5084877;28;20322;-83
2021/09/07 13:09:29;;;;;;;;;;;25.50;99.90;;;;;;5088340;28;20211;-83
2021/09/07 13:11:55;;;;;;;;;;;25.50;99.90;;;;;;5087051;28;19938;-83
2021/09/07 13:14:20;;;;;;;;;;;25.50;99.90;;;;;;5091184;28;20219;-83
2021/09/07 13:16:46;;;;;;;;;;;25.50;99.90;;;;;;5088107;28;19912;-83
2021/09/07 13:19:12;;;;;;;;;;;25.30;99.90;;;;;;5091356;28;19916;-83
2021/09/07 13:21:38;;;;;;;;;;;25.30;99.90;;;;;;5088893;28;20310;-84
2021/09/07 13:24:04;;;;;;;;;;;25.30;99.90;;;;;;5072983;28;21163;-84
2021/09/07 13:26:30;;;;;;;;;;;25.20;99.90;;;;;;5088266;28;19962;-83
2021/09/07 13:28:55;;;;;;;;;;;25.20;99.90;;;;;;5072995;28;19913;-84
2021/09/07 13:31:21;;;;;;;;;;;25.20;99.90;;;;;;5073608;28;19913;-84
2021/09/07 13:33:48;;;;;;;;;;;25.10;99.90;;;;;;5085677;28;19915;-85
2021/09/07 13:36:21;;;;;;;;;;;25.00;99.90;;;;;;5076446;28;19916;-78
2021/09/07 13:38:46;;;;;;;;;;;25.10;99.90;;;;;;5087278;28;19962;-86
2021/09/07 13:41:12;;;;;;;;;;;25.00;99.90;;;;;;5088075;28;19920;-84
2021/09/07 13:43:37;;;;;;;;;;;25.00;99.90;;;;;;5076783;28;19912;-84
2021/09/07 13:46:03;;;;;;;;;;;25.00;99.90;;;;;;5079970;28;19978;-84
2021/09/07 13:48:29;;;;;;;;;;;25.00;99.90;;;;;;5095426;28;19923;-77
2021/09/07 13:50:54;;;;;;;;;;;25.00;99.90;;;;;;5094840;28;20243;-84
2021/09/07 13:53:20;;;;;;;;;;;25.00;99.90;;;;;;5094732;28;20325;-82
2021/09/07 13:55:45;;;;;;;;;;;25.00;99.90;;;;;;5077107;28;19916;-83
2021/09/07 13:58:11;;;;;;;;;;;25.00;99.90;;;;;;5076825;28;20003;-83
2021/09/07 14:00:37;;;;;;;;;;;25.00;99.90;;;;;;5077360;28;19920;-85
2021/09/07 14:03:02;;;;;;;;;;;24.90;99.90;;;;;;5094585;28;19912;-83
2021/09/07 14:05:28;;;;;;;;;;;24.90;99.90;;;;;;5076652;28;19912;-84
2021/09/07 14:07:53;;;;;;;;;;;25.00;99.90;;;;;;5094308;28;19920;-84
2021/09/07 14:10:19;;;;;;;;;;;24.90;99.90;;;;;;5065396;28;19917;-84
2021/09/07 14:12:45;;;;;;;;;;;24.90;99.90;;;;;;5072780;28;19920;-84
2021/09/07 14:15:11;;;;;;;;;;;24.80;99.90;;;;;;5088146;28;19924;-83
2021/09/07 14:17:37;;;;;;;;;;;24.80;99.90;;;;;;5072327;28;19913;-85